sensor_id;sensor_type;location;lat;lon;timestamp;temperature;humidity
13472;DHT22;6808;49.444;11.034;2022-12-29T00:02:16;6.70;99.90
13472;DHT22;6808;49.444;11.034;2022-12-29T00:04:42;6.70;99.90
13472;DHT22;6808;49.444;11.034;2022-12-29T00:07:08;6.70;99.90
13472;DHT22;6808;49.444;11.034;2022-12-29T00:09:34;6.70;99.90
13472;DHT22;6808;49.444;11.034;2022-12-29T00:12:02;6.70;99.90
13472;DHT22;6808;49.444;11.034;2022-12-29T00:14:27;6.70;99.90
13472;DHT22;6808;49.444;11.034;2022-12-29T00:17:12;6.70;99.90
13472;DHT22;6808;49.444;11.034;2022-12-29T00:19:38;6.80;99.90
13472;DHT22;6808;49.444;11.034;2022-12-29T00:22:22;6.80;99.90
13472;DHT22;6808;49.444;11.034;2022-12-29T00:25:12;6.90;99.90
13472;DHT22;6808;49.444;11.034;2022-12-29T00:27:57;6.90;99.90
13472;DHT22;6808;49.444;11.034;2022-12-29T00:30:41;6.80;99.90
13472;DHT22;6808;49.444;11.034;2022-12-29T00:33:29;6.80;99.90
13472;DHT22;6808;49.444;11.034;2022-12-29T00:36:15;6.80;99.90
13472;DHT22;6808;49.444;11.034;2022-12-29T00:38:51;6.80;99.90
13472;DHT22;6808;49.444;11.034;2022-12-29T00:41:35;6.80;99.90
13472;DHT22;6808;49.444;11.034;2022-12-29T00:44:19;6.80;99.90
13472;DHT22;6808;49.444;11.034;2022-12-29T00:46:45;6.80;99.90
13472;DHT22;6808;49.444;11.034;2022-12-29T00:49:12;6.80;99.90
13472;DHT22;6808;49.444;11.034;2022-12-29T00:52:02;6.80;99.90
13472;DHT22;6808;49.444;11.034;2022-12-29T00:54:33;6.90;99.90
13472;DHT22;6808;49.444;11.034;2022-12-29T00:56:59;7.00;99.90
13472;DHT22;6808;49.444;11.034;2022-12-29T00:59:25;7.00;99.90
13472;DHT22;6808;49.444;11.034;2022-12-29T01:01:52;7.00;99.90
13472;DHT22;6808;49.444;11.034;2022-12-29T01:04:19;7.00;99.90
13472;DHT22;6808;49.444;11.034;2022-12-29T01:06:46;7.00;99.90
13472;DHT22;6808;49.444;11.034;2022-12-29T01:09:11;7.00;99.90
13472;DHT22;6808;49.444;11.034;2022-12-29T01:11:56;7.00;99.90
13472;DHT22;6808;49.444;11.034;2022-12-29T01:14:22;7.00;99.90
13472;DHT22;6808;49.444;11.034;2022-12-29T01:16:48;7.00;99.90
13472;DHT22;6808;49.444;11.034;2022-12-29T01:19:14;7.00;99.90
13472;DHT22;6808;49.444;11.034;2022-12-29T01:21:40;7.00;99.90
13472;DHT22;6808;49.444;11.034;2022-12-29T01:24:06;7.00;99.90
13472;DHT22;6808;49.444;11.034;2022-12-29T01:26:32;7.10;99.90
13472;DHT22;6808;49.444;11.034;2022-12-29T01:28:57;7.10;99.90
13472;DHT22;6808;49.444;11.034;2022-12-29T01:31:23;7.10;99.90
13472;DHT22;6808;49.444;11.034;2022-12-29T01:33:49;7.20;99.90
13472;DHT22;6808;49.444;11.034;2022-12-29T01:36:15;7.20;99.90
13472;DHT22;6808;49.444;11.034;2022-12-29T01:38:42;7.20;99.90
13472;DHT22;6808;49.444;11.034;2022-12-29T01:41:09;7.20;99.90
13472;DHT22;6808;49.444;11.034;2022-12-29T01:43:42;7.30;99.90
13472;DHT22;6808;49.444;11.034;2022-12-29T01:49:01;7.20;99.90
13472;DHT22;6808;49.444;11.034;2022-12-29T01:51:30;7.20;99.90
13472;DHT22;6808;49.444;11.034;2022-12-29T01:53:59;7.20;99.90
13472;DHT22;6808;49.444;11.034;2022-12-29T01:56:26;7.30;99.90
13472;DHT22;6808;49.444;11.034;2022-12-29T01:58:58;7.30;99.90
13472;DHT22;6808;49.444;11.034;2022-12-29T02:01:26;7.30;99.90
13472;DHT22;6808;49.444;11.034;2022-12-29T02:03:52;7.30;99.90
13472;DHT22;6808;49.444;11.034;2022-12-29T02:06:33;7.30;99.90
13472;DHT22;6808;49.444;11.034;2022-12-29T02:08:59;7.40;99.90
13472;DHT22;6808;49.444;11.034;2022-12-29T02:11:26;7.40;99.90
13472;DHT22;6808;49.444;11.034;2022-12-29T02:13:53;7.40;99.90
13472;DHT22;6808;49.444;11.034;2022-12-29T02:16:42;7.40;99.90
13472;DHT22;6808;49.444;11.034;2022-12-29T02:19:36;7.40;99.90
13472;DHT22;6808;49.444;11.034;2022-12-29T02:33:41;7.40;99.90
13472;DHT22;6808;49.444;11.034;2022-12-29T02:42:13;7.40;99.90
13472;DHT22;6808;49.444;11.034;2022-12-29T02:50:15;7.50;99.90
13472;DHT22;6808;49.444;11.034;2022-12-29T02:52:50;7.40;99.90
13472;DHT22;6808;49.444;11.034;2022-12-29T02:55:16;7.50;99.90
13472;DHT22;6808;49.444;11.034;2022-12-29T02:57:42;7.50;99.90
13472;DHT22;6808;49.444;11.034;2022-12-29T03:00:13;7.50;99.90
13472;DHT22;6808;49.444;11.034;2022-12-29T03:08:05;7.50;99.90
13472;DHT22;6808;49.444;11.034;2022-12-29T03:11:03;7.40;99.90
13472;DHT22;6808;49.444;11.034;2022-12-29T03:13:52;7.50;99.90
13472;DHT22;6808;49.444;11.034;2022-12-29T03:16:46;7.50;99.90
13472;DHT22;6808;49.444;11.034;2022-12-29T03:19:30;7.50;99.90
13472;DHT22;6808;49.444;11.034;2022-12-29T03:22:22;7.40;99.90
13472;DHT22;6808;49.444;11.034;2022-12-29T03:25:10;7.40;99.90
13472;DHT22;6808;49.444;11.034;2022-12-29T03:27:56;7.40;99.90
13472;DHT22;6808;49.444;11.034;2022-12-29T03:30:24;7.40;99.90
13472;DHT22;6808;49.444;11.034;2022-12-29T03:32:57;7.40;99.90
13472;DHT22;6808;49.444;11.034;2022-12-29T03:35:25;7.40;99.90
13472;DHT22;6808;49.444;11.034;2022-12-29T03:38:08;7.40;99.90
13472;DHT22;6808;49.444;11.034;2022-12-29T03:40:38;7.50;99.90
13472;DHT22;6808;49.444;11.034;2022-12-29T03:43:05;7.50;99.90
13472;DHT22;6808;49.444;11.034;2022-12-29T03:45:31;7.50;99.90
13472;DHT22;6808;49.444;11.034;2022-12-29T03:47:56;7.50;99.90
13472;DHT22;6808;49.444;11.034;2022-12-29T03:50:22;7.40;99.90
13472;DHT22;6808;49.444;11.034;2022-12-29T03:52:47;7.40;99.90
13472;DHT22;6808;49.444;11.034;2022-12-29T03:55:13;7.50;99.90
13472;DHT22;6808;49.444;11.034;2022-12-29T03:57:38;7.60;99.90
13472;DHT22;6808;49.444;11.034;2022-12-29T04:00:05;7.50;99.90
13472;DHT22;6808;49.444;11.034;2022-12-29T04:02:31;7.50;99.90
13472;DHT22;6808;49.444;11.034;2022-12-29T04:04:57;7.40;99.90
13472;DHT22;6808;49.444;11.034;2022-12-29T04:07:22;7.50;99.90
13472;DHT22;6808;49.444;11.034;2022-12-29T04:09:48;7.50;99.90
13472;DHT22;6808;49.444;11.034;2022-12-29T04:12:13;7.40;99.90
13472;DHT22;6808;49.444;11.034;2022-12-29T04:14:40;7.40;99.90
13472;DHT22;6808;49.444;11.034;2022-12-29T04:17:05;7.40;99.90
13472;DHT22;6808;49.444;11.034;2022-12-29T04:19:31;7.50;99.90
13472;DHT22;6808;49.444;11.034;2022-12-29T04:21:57;7.50;99.90
13472;DHT22;6808;49.444;11.034;2022-12-29T04:24:22;7.50;99.90
13472;DHT22;6808;49.444;11.034;2022-12-29T04:26:48;7.40;99.90
13472;DHT22;6808;49.444;11.034;2022-12-29T04:29:13;7.50;99.90
13472;DHT22;6808;49.444;11.034;2022-12-29T04:31:39;7.50;99.90
13472;DHT22;6808;49.444;11.034;2022-12-29T04:34:04;7.40;99.90
13472;DHT22;6808;49.444;11.034;2022-12-29T04:36:30;7.40;99.90
13472;DHT22;6808;49.444;11.034;2022-12-29T04:38:56;7.40;99.90
13472;DHT22;6808;49.444;11.034;2022-12-29T04:41:22;7.40;99.90
13472;DHT22;6808;49.444;11.034;2022-12-29T04:43:47;7.40;99.90
13472;DHT22;6808;49.444;11.034;2022-12-29T04:46:13;7.40;99.90
13472;DHT22;6808;49.444;11.034;2022-12-29T04:48:38;7.40;99.90
13472;DHT22;6808;49.444;11.034;2022-12-29T04:51:04;7.40;99.90
13472;DHT22;6808;49.444;11.034;2022-12-29T04:53:29;7.40;99.90
13472;DHT22;6808;49.444;11.034;2022-12-29T04:55:55;7.40;99.90
13472;DHT22;6808;49.444;11.034;2022-12-29T04:58:21;7.40;99.90
13472;DHT22;6808;49.444;11.034;2022-12-29T05:00:47;7.30;99.90
13472;DHT22;6808;49.444;11.034;2022-12-29T05:03:12;7.30;99.90
13472;DHT22;6808;49.444;11.034;2022-12-29T05:05:38;7.20;99.90
13472;DHT22;6808;49.444;11.034;2022-12-29T05:08:03;7.20;99.90
13472;DHT22;6808;49.444;11.034;2022-12-29T05:10:29;7.10;99.90
13472;DHT22;6808;49.444;11.034;2022-12-29T05:12:54;7.10;99.90
13472;DHT22;6808;49.444;11.034;2022-12-29T05:15:21;7.00;99.90
13472;DHT22;6808;49.444;11.034;2022-12-29T05:17:47;6.90;99.90
13472;DHT22;6808;49.444;11.034;2022-12-29T05:20:12;6.90;99.90
13472;DHT22;6808;49.444;11.034;2022-12-29T05:22:38;6.90;99.90
13472;DHT22;6808;49.444;11.034;2022-12-29T05:25:04;6.90;99.90
13472;DHT22;6808;49.444;11.034;2022-12-29T05:27:29;6.80;99.90
13472;DHT22;6808;49.444;11.034;2022-12-29T05:29:55;6.90;99.90
13472;DHT22;6808;49.444;11.034;2022-12-29T05:32:21;6.90;99.90
13472;DHT22;6808;49.444;11.034;2022-12-29T05:34:46;7.00;99.90
13472;DHT22;6808;49.444;11.034;2022-12-29T05:37:12;7.00;99.90
13472;DHT22;6808;49.444;11.034;2022-12-29T05:39:37;7.00;99.90
13472;DHT22;6808;49.444;11.034;2022-12-29T05:42:03;7.10;99.90
13472;DHT22;6808;49.444;11.034;2022-12-29T05:44:28;7.10;99.90
13472;DHT22;6808;49.444;11.034;2022-12-29T05:46:54;7.10;99.90
13472;DHT22;6808;49.444;11.034;2022-12-29T05:49:19;7.10;99.90
13472;DHT22;6808;49.444;11.034;2022-12-29T05:51:45;7.00;99.90
13472;DHT22;6808;49.444;11.034;2022-12-29T05:54:11;7.00;99.90
13472;DHT22;6808;49.444;11.034;2022-12-29T05:56:36;6.90;99.90
13472;DHT22;6808;49.444;11.034;2022-12-29T05:59:02;6.90;99.90
13472;DHT22;6808;49.444;11.034;2022-12-29T06:01:27;6.80;99.90
13472;DHT22;6808;49.444;11.034;2022-12-29T06:03:53;6.80;99.90
13472;DHT22;6808;49.444;11.034;2022-12-29T06:06:19;6.70;99.90
13472;DHT22;6808;49.444;11.034;2022-12-29T06:08:44;6.70;99.90
13472;DHT22;6808;49.444;11.034;2022-12-29T06:11:10;6.60;99.90
13472;DHT22;6808;49.444;11.034;2022-12-29T06:13:35;6.60;99.90
13472;DHT22;6808;49.444;11.034;2022-12-29T06:16:01;6.60;99.90
13472;DHT22;6808;49.444;11.034;2022-12-29T06:18:27;6.70;99.90
13472;DHT22;6808;49.444;11.034;2022-12-29T06:20:52;6.70;99.90
13472;DHT22;6808;49.444;11.034;2022-12-29T06:23:18;6.70;99.90
13472;DHT22;6808;49.444;11.034;2022-12-29T06:25:44;6.70;99.90
13472;DHT22;6808;49.444;11.034;2022-12-29T06:28:10;6.60;99.90
13472;DHT22;6808;49.444;11.034;2022-12-29T06:30:36;6.70;99.90
13472;DHT22;6808;49.444;11.034;2022-12-29T06:33:01;6.70;99.90
13472;DHT22;6808;49.444;11.034;2022-12-29T06:35:27;6.70;99.90
13472;DHT22;6808;49.444;11.034;2022-12-29T06:37:53;6.70;99.90
13472;DHT22;6808;49.444;11.034;2022-12-29T06:40:18;6.80;99.90
13472;DHT22;6808;49.444;11.034;2022-12-29T06:42:44;6.80;99.90
13472;DHT22;6808;49.444;11.034;2022-12-29T06:45:10;6.90;99.90
13472;DHT22;6808;49.444;11.034;2022-12-29T06:47:35;6.90;99.90
13472;DHT22;6808;49.444;11.034;2022-12-29T06:50:02;7.00;99.90
13472;DHT22;6808;49.444;11.034;2022-12-29T06:52:28;7.00;99.70
13472;DHT22;6808;49.444;11.034;2022-12-29T06:54:54;7.00;99.70
13472;DHT22;6808;49.444;11.034;2022-12-29T06:57:20;7.00;99.80
13472;DHT22;6808;49.444;11.034;2022-12-29T06:59:45;7.00;99.80
13472;DHT22;6808;49.444;11.034;2022-12-29T07:02:11;7.00;99.50
13472;DHT22;6808;49.444;11.034;2022-12-29T07:04:37;7.00;99.60
13472;DHT22;6808;49.444;11.034;2022-12-29T07:07:02;6.90;99.50
13472;DHT22;6808;49.444;11.034;2022-12-29T07:09:28;7.00;99.50
13472;DHT22;6808;49.444;11.034;2022-12-29T07:11:54;6.90;99.80
13472;DHT22;6808;49.444;11.034;2022-12-29T07:14:19;6.80;99.90
13472;DHT22;6808;49.444;11.034;2022-12-29T07:16:45;6.80;99.90
13472;DHT22;6808;49.444;11.034;2022-12-29T07:19:10;6.80;99.90
13472;DHT22;6808;49.444;11.034;2022-12-29T07:21:36;6.70;99.90
13472;DHT22;6808;49.444;11.034;2022-12-29T07:24:01;6.80;99.90
13472;DHT22;6808;49.444;11.034;2022-12-29T07:26:27;6.80;99.90
13472;DHT22;6808;49.444;11.034;2022-12-29T07:28:53;6.80;99.90
13472;DHT22;6808;49.444;11.034;2022-12-29T07:31:21;6.80;99.90
13472;DHT22;6808;49.444;11.034;2022-12-29T07:33:48;6.90;99.70
13472;DHT22;6808;49.444;11.034;2022-12-29T07:36:14;6.90;99.80
13472;DHT22;6808;49.444;11.034;2022-12-29T07:38:41;6.90;99.90
13472;DHT22;6808;49.444;11.034;2022-12-29T07:41:06;6.90;99.70
13472;DHT22;6808;49.444;11.034;2022-12-29T07:43:32;7.00;99.50
13472;DHT22;6808;49.444;11.034;2022-12-29T07:45:58;7.00;99.50
13472;DHT22;6808;49.444;11.034;2022-12-29T07:48:24;7.00;99.40
13472;DHT22;6808;49.444;11.034;2022-12-29T07:50:49;7.00;99.80
13472;DHT22;6808;49.444;11.034;2022-12-29T07:53:15;7.00;99.60
13472;DHT22;6808;49.444;11.034;2022-12-29T07:55:41;7.20;99.20
13472;DHT22;6808;49.444;11.034;2022-12-29T07:58:06;7.20;99.00
13472;DHT22;6808;49.444;11.034;2022-12-29T08:00:32;7.30;98.90
13472;DHT22;6808;49.444;11.034;2022-12-29T08:02:57;7.30;98.90
13472;DHT22;6808;49.444;11.034;2022-12-29T08:05:23;7.40;98.60
13472;DHT22;6808;49.444;11.034;2022-12-29T08:07:48;7.50;98.60
13472;DHT22;6808;49.444;11.034;2022-12-29T08:10:15;7.50;98.60
13472;DHT22;6808;49.444;11.034;2022-12-29T08:12:41;7.60;98.70
13472;DHT22;6808;49.444;11.034;2022-12-29T08:15:08;7.60;98.70
13472;DHT22;6808;49.444;11.034;2022-12-29T08:17:34;7.60;98.50
13472;DHT22;6808;49.444;11.034;2022-12-29T08:20:00;7.70;98.60
13472;DHT22;6808;49.444;11.034;2022-12-29T08:22:25;7.80;98.50
13472;DHT22;6808;49.444;11.034;2022-12-29T08:24:51;7.80;98.40
13472;DHT22;6808;49.444;11.034;2022-12-29T08:27:17;7.90;98.40
13472;DHT22;6808;49.444;11.034;2022-12-29T08:29:42;7.90;98.50
13472;DHT22;6808;49.444;11.034;2022-12-29T08:32:08;7.90;98.50
13472;DHT22;6808;49.444;11.034;2022-12-29T08:34:33;8.00;98.50
13472;DHT22;6808;49.444;11.034;2022-12-29T08:36:59;8.10;98.30
13472;DHT22;6808;49.444;11.034;2022-12-29T08:39:24;8.10;98.20
13472;DHT22;6808;49.444;11.034;2022-12-29T08:41:50;8.20;98.10
13472;DHT22;6808;49.444;11.034;2022-12-29T08:44:15;8.20;98.10
13472;DHT22;6808;49.444;11.034;2022-12-29T08:46:41;8.30;98.00
13472;DHT22;6808;49.444;11.034;2022-12-29T08:49:07;8.30;98.20
13472;DHT22;6808;49.444;11.034;2022-12-29T08:51:32;8.40;98.10
13472;DHT22;6808;49.444;11.034;2022-12-29T08:53:58;8.40;98.00
13472;DHT22;6808;49.444;11.034;2022-12-29T08:56:24;8.50;97.90
13472;DHT22;6808;49.444;11.034;2022-12-29T08:58:50;8.50;98.20
13472;DHT22;6808;49.444;11.034;2022-12-29T09:01:16;8.60;98.20
13472;DHT22;6808;49.444;11.034;2022-12-29T09:03:42;8.60;97.80
13472;DHT22;6808;49.444;11.034;2022-12-29T09:06:07;8.70;98.00
13472;DHT22;6808;49.444;11.034;2022-12-29T09:08:33;8.70;97.90
13472;DHT22;6808;49.444;11.034;2022-12-29T09:11:06;8.70;98.20
13472;DHT22;6808;49.444;11.034;2022-12-29T09:13:32;8.80;98.20
13472;DHT22;6808;49.444;11.034;2022-12-29T09:15:59;8.80;98.70
13472;DHT22;6808;49.444;11.034;2022-12-29T09:18:24;8.80;98.60
13472;DHT22;6808;49.444;11.034;2022-12-29T09:20:56;8.90;98.50
13472;DHT22;6808;49.444;11.034;2022-12-29T09:23:22;9.00;98.40
13472;DHT22;6808;49.444;11.034;2022-12-29T09:25:47;9.10;98.50
13472;DHT22;6808;49.444;11.034;2022-12-29T09:28:13;9.10;98.60
13472;DHT22;6808;49.444;11.034;2022-12-29T09:30:38;9.20;98.50
13472;DHT22;6808;49.444;11.034;2022-12-29T09:33:04;9.30;98.70
13472;DHT22;6808;49.444;11.034;2022-12-29T09:35:30;9.40;98.40
13472;DHT22;6808;49.444;11.034;2022-12-29T09:37:55;9.50;98.20
13472;DHT22;6808;49.444;11.034;2022-12-29T09:40:28;9.50;98.60
13472;DHT22;6808;49.444;11.034;2022-12-29T09:48:46;9.70;98.30
13472;DHT22;6808;49.444;11.034;2022-12-29T09:51:21;9.70;98.20
13472;DHT22;6808;49.444;11.034;2022-12-29T09:53:58;9.70;98.20
13472;DHT22;6808;49.444;11.034;2022-12-29T09:56:25;9.80;98.50
13472;DHT22;6808;49.444;11.034;2022-12-29T09:58:52;9.80;98.30
13472;DHT22;6808;49.444;11.034;2022-12-29T10:04:04;9.80;98.60
13472;DHT22;6808;49.444;11.034;2022-12-29T10:09:43;9.80;98.80
13472;DHT22;6808;49.444;11.034;2022-12-29T10:20:14;10.00;98.00
13472;DHT22;6808;49.444;11.034;2022-12-29T10:25:28;10.00;98.40
13472;DHT22;6808;49.444;11.034;2022-12-29T10:27:57;10.00;98.40
13472;DHT22;6808;49.444;11.034;2022-12-29T10:30:24;10.00;98.40
13472;DHT22;6808;49.444;11.034;2022-12-29T10:33:01;10.00;98.60
13472;DHT22;6808;49.444;11.034;2022-12-29T10:35:35;10.00;98.80
13472;DHT22;6808;49.444;11.034;2022-12-29T10:38:26;10.10;98.50
13472;DHT22;6808;49.444;11.034;2022-12-29T10:43:38;10.20;98.70
13472;DHT22;6808;49.444;11.034;2022-12-29T10:46:12;10.20;98.70
13472;DHT22;6808;49.444;11.034;2022-12-29T10:48:38;10.20;98.70
13472;DHT22;6808;49.444;11.034;2022-12-29T10:51:08;10.20;98.50
13472;DHT22;6808;49.444;11.034;2022-12-29T10:53:47;10.30;98.30
13472;DHT22;6808;49.444;11.034;2022-12-29T10:56:47;10.40;98.10
13472;DHT22;6808;49.444;11.034;2022-12-29T10:59:27;10.50;98.20
13472;DHT22;6808;49.444;11.034;2022-12-29T11:05:03;10.50;98.50
13472;DHT22;6808;49.444;11.034;2022-12-29T11:07:32;10.50;98.40
13472;DHT22;6808;49.444;11.034;2022-12-29T11:10:21;10.60;98.10
13472;DHT22;6808;49.444;11.034;2022-12-29T11:12:58;10.70;97.70
13472;DHT22;6808;49.444;11.034;2022-12-29T11:15:24;10.70;97.90
13472;DHT22;6808;49.444;11.034;2022-12-29T11:18:00;10.80;98.00
13472;DHT22;6808;49.444;11.034;2022-12-29T11:20:34;10.90;97.80
13472;DHT22;6808;49.444;11.034;2022-12-29T11:23:02;10.90;97.90
13472;DHT22;6808;49.444;11.034;2022-12-29T11:25:28;10.90;97.70
13472;DHT22;6808;49.444;11.034;2022-12-29T11:27:59;11.00;97.70
13472;DHT22;6808;49.444;11.034;2022-12-29T11:30:28;11.00;97.80
13472;DHT22;6808;49.444;11.034;2022-12-29T11:32:55;11.00;97.70
13472;DHT22;6808;49.444;11.034;2022-12-29T11:35:36;11.00;97.90
13472;DHT22;6808;49.444;11.034;2022-12-29T11:38:04;11.10;97.80
13472;DHT22;6808;49.444;11.034;2022-12-29T11:40:30;11.10;98.00
13472;DHT22;6808;49.444;11.034;2022-12-29T11:43:03;11.10;98.00
13472;DHT22;6808;49.444;11.034;2022-12-29T11:45:36;11.10;98.20
13472;DHT22;6808;49.444;11.034;2022-12-29T11:48:22;11.10;98.10
13472;DHT22;6808;49.444;11.034;2022-12-29T11:50:52;11.10;98.10
13472;DHT22;6808;49.444;11.034;2022-12-29T11:53:24;11.20;98.00
13472;DHT22;6808;49.444;11.034;2022-12-29T11:56:02;11.20;97.90
13472;DHT22;6808;49.444;11.034;2022-12-29T11:58:31;11.30;98.10
13472;DHT22;6808;49.444;11.034;2022-12-29T12:03:30;11.40;97.90
13472;DHT22;6808;49.444;11.034;2022-12-29T12:06:02;11.40;98.20
13472;DHT22;6808;49.444;11.034;2022-12-29T12:08:35;11.30;98.20
13472;DHT22;6808;49.444;11.034;2022-12-29T12:11:18;11.40;98.50
13472;DHT22;6808;49.444;11.034;2022-12-29T12:14:16;11.40;98.20
13472;DHT22;6808;49.444;11.034;2022-12-29T12:17:12;11.50;98.40
13472;DHT22;6808;49.444;11.034;2022-12-29T12:20:10;11.50;98.40
13472;DHT22;6808;49.444;11.034;2022-12-29T12:22:46;11.60;98.20
13472;DHT22;6808;49.444;11.034;2022-12-29T12:25:27;11.60;98.50
13472;DHT22;6808;49.444;11.034;2022-12-29T12:28:48;11.80;98.20
13472;DHT22;6808;49.444;11.034;2022-12-29T12:30:48;11.70;98.30
13472;DHT22;6808;49.444;11.034;2022-12-29T12:33:24;11.80;98.10
13472;DHT22;6808;49.444;11.034;2022-12-29T12:39:11;11.80;98.50
13472;DHT22;6808;49.444;11.034;2022-12-29T12:44:54;11.80;98.30
13472;DHT22;6808;49.444;11.034;2022-12-29T12:47:35;11.80;98.50
13472;DHT22;6808;49.444;11.034;2022-12-29T12:53:17;11.70;98.80
13472;DHT22;6808;49.444;11.034;2022-12-29T12:56:03;11.70;98.70
13472;DHT22;6808;49.444;11.034;2022-12-29T13:01:21;11.70;99.20
13472;DHT22;6808;49.444;11.034;2022-12-29T13:07:07;11.50;99.20
13472;DHT22;6808;49.444;11.034;2022-12-29T13:10:12;11.50;99.40
13472;DHT22;6808;49.444;11.034;2022-12-29T13:18:25;11.50;99.90
13472;DHT22;6808;49.444;11.034;2022-12-29T13:23:34;11.40;99.90
13472;DHT22;6808;49.444;11.034;2022-12-29T13:28:59;11.30;99.90
13472;DHT22;6808;49.444;11.034;2022-12-29T13:31:40;11.30;99.90
13472;DHT22;6808;49.444;11.034;2022-12-29T13:34:42;11.20;99.90
13472;DHT22;6808;49.444;11.034;2022-12-29T13:37:16;11.20;99.90
13472;DHT22;6808;49.444;11.034;2022-12-29T13:39:47;11.10;99.90
13472;DHT22;6808;49.444;11.034;2022-12-29T13:42:16;11.10;99.90
13472;DHT22;6808;49.444;11.034;2022-12-29T13:44:48;11.10;99.90
13472;DHT22;6808;49.444;11.034;2022-12-29T13:47:36;11.10;99.90
13472;DHT22;6808;49.444;11.034;2022-12-29T13:50:08;11.10;99.90
13472;DHT22;6808;49.444;11.034;2022-12-29T13:55:41;11.10;99.90
13472;DHT22;6808;49.444;11.034;2022-12-29T13:58:20;11.10;99.90
13472;DHT22;6808;49.444;11.034;2022-12-29T14:03:54;11.10;99.90
13472;DHT22;6808;49.444;11.034;2022-12-29T14:06:29;11.10;99.90
13472;DHT22;6808;49.444;11.034;2022-12-29T14:09:01;11.10;99.90
13472;DHT22;6808;49.444;11.034;2022-12-29T14:11:33;11.00;99.90
13472;DHT22;6808;49.444;11.034;2022-12-29T14:14:03;11.10;99.90
13472;DHT22;6808;49.444;11.034;2022-12-29T14:16:36;11.10;99.90
13472;DHT22;6808;49.444;11.034;2022-12-29T14:19:17;11.00;99.90
13472;DHT22;6808;49.444;11.034;2022-12-29T14:21:55;11.00;99.90
13472;DHT22;6808;49.444;11.034;2022-12-29T14:24:37;11.00;99.90
13472;DHT22;6808;49.444;11.034;2022-12-29T14:34:59;11.00;99.90
13472;DHT22;6808;49.444;11.034;2022-12-29T14:37:33;10.90;99.90
13472;DHT22;6808;49.444;11.034;2022-12-29T14:40:44;10.90;99.90
13472;DHT22;6808;49.444;11.034;2022-12-29T14:42:53;10.90;99.90
13472;DHT22;6808;49.444;11.034;2022-12-29T14:45:27;10.90;99.90
13472;DHT22;6808;49.444;11.034;2022-12-29T14:47:54;10.80;99.90
13472;DHT22;6808;49.444;11.034;2022-12-29T14:50:26;10.80;99.90
13472;DHT22;6808;49.444;11.034;2022-12-29T14:53:01;10.70;99.90
13472;DHT22;6808;49.444;11.034;2022-12-29T14:55:43;10.70;99.90
13472;DHT22;6808;49.444;11.034;2022-12-29T14:58:18;10.70;99.90
13472;DHT22;6808;49.444;11.034;2022-12-29T15:00:45;10.70;99.90
13472;DHT22;6808;49.444;11.034;2022-12-29T15:03:23;10.60;99.90
13472;DHT22;6808;49.444;11.034;2022-12-29T15:05:55;10.70;99.90
13472;DHT22;6808;49.444;11.034;2022-12-29T15:08:25;10.70;99.90
13472;DHT22;6808;49.444;11.034;2022-12-29T15:10:56;10.60;99.90
13472;DHT22;6808;49.444;11.034;2022-12-29T15:13:38;10.70;99.90
13472;DHT22;6808;49.444;11.034;2022-12-29T15:16:04;10.60;99.90
13472;DHT22;6808;49.444;11.034;2022-12-29T15:18:32;10.70;99.90
13472;DHT22;6808;49.444;11.034;2022-12-29T15:21:03;10.60;99.90
13472;DHT22;6808;49.444;11.034;2022-12-29T15:23:32;10.60;99.90
13472;DHT22;6808;49.444;11.034;2022-12-29T15:26:04;10.60;99.90
13472;DHT22;6808;49.444;11.034;2022-12-29T15:28:41;10.60;99.90
13472;DHT22;6808;49.444;11.034;2022-12-29T15:31:16;10.60;99.90
13472;DHT22;6808;49.444;11.034;2022-12-29T15:33:47;10.60;99.90
13472;DHT22;6808;49.444;11.034;2022-12-29T15:38:44;10.60;99.90
13472;DHT22;6808;49.444;11.034;2022-12-29T15:41:21;10.60;99.90
13472;DHT22;6808;49.444;11.034;2022-12-29T15:43:58;10.00;99.90
13472;DHT22;6808;49.444;11.034;2022-12-29T15:46:30;10.60;99.90
13472;DHT22;6808;49.444;11.034;2022-12-29T15:48:56;10.50;99.90
13472;DHT22;6808;49.444;11.034;2022-12-29T15:51:29;10.50;99.90
13472;DHT22;6808;49.444;11.034;2022-12-29T15:53:56;10.50;99.90
13472;DHT22;6808;49.444;11.034;2022-12-29T15:56:22;10.50;99.90
13472;DHT22;6808;49.444;11.034;2022-12-29T15:58:50;10.40;99.90
13472;DHT22;6808;49.444;11.034;2022-12-29T16:01:19;10.40;99.90
13472;DHT22;6808;49.444;11.034;2022-12-29T16:03:45;10.40;99.90
13472;DHT22;6808;49.444;11.034;2022-12-29T16:06:30;10.40;99.90
13472;DHT22;6808;49.444;11.034;2022-12-29T16:08:59;10.40;99.90
13472;DHT22;6808;49.444;11.034;2022-12-29T16:11:26;10.40;99.90
13472;DHT22;6808;49.444;11.034;2022-12-29T16:13:53;10.40;99.90
13472;DHT22;6808;49.444;11.034;2022-12-29T16:16:27;10.40;99.90
13472;DHT22;6808;49.444;11.034;2022-12-29T16:18:54;10.90;99.90
13472;DHT22;6808;49.444;11.034;2022-12-29T16:21:28;10.30;99.90
13472;DHT22;6808;49.444;11.034;2022-12-29T16:23:55;10.30;99.90
13472;DHT22;6808;49.444;11.034;2022-12-29T16:26:23;10.30;99.90
13472;DHT22;6808;49.444;11.034;2022-12-29T16:29:01;10.40;99.90
13472;DHT22;6808;49.444;11.034;2022-12-29T16:31:54;10.30;99.90
13472;DHT22;6808;49.444;11.034;2022-12-29T16:34:32;10.30;99.90
13472;DHT22;6808;49.444;11.034;2022-12-29T16:37:02;10.30;99.90
13472;DHT22;6808;49.444;11.034;2022-12-29T16:39:34;10.30;99.90
13472;DHT22;6808;49.444;11.034;2022-12-29T16:42:01;10.20;99.90
13472;DHT22;6808;49.444;11.034;2022-12-29T16:44:29;10.20;99.90
13472;DHT22;6808;49.444;11.034;2022-12-29T16:49:38;10.20;99.90
13472;DHT22;6808;49.444;11.034;2022-12-29T16:52:13;10.20;99.90
13472;DHT22;6808;49.444;11.034;2022-12-29T16:54:39;10.20;99.90
13472;DHT22;6808;49.444;11.034;2022-12-29T16:57:07;10.20;99.90
13472;DHT22;6808;49.444;11.034;2022-12-29T16:59:39;10.20;99.90
13472;DHT22;6808;49.444;11.034;2022-12-29T17:02:14;10.20;99.90
13472;DHT22;6808;49.444;11.034;2022-12-29T17:04:40;10.20;99.90
13472;DHT22;6808;49.444;11.034;2022-12-29T17:07:18;10.20;99.90
13472;DHT22;6808;49.444;11.034;2022-12-29T17:09:44;10.20;99.90
13472;DHT22;6808;49.444;11.034;2022-12-29T17:12:14;10.20;99.90
13472;DHT22;6808;49.444;11.034;2022-12-29T17:14:48;10.20;99.90
13472;DHT22;6808;49.444;11.034;2022-12-29T17:17:18;10.20;99.90
13472;DHT22;6808;49.444;11.034;2022-12-29T17:19:53;10.20;99.90
13472;DHT22;6808;49.444;11.034;2022-12-29T17:22:25;10.20;99.90
13472;DHT22;6808;49.444;11.034;2022-12-29T17:24:56;10.10;99.90
13472;DHT22;6808;49.444;11.034;2022-12-29T17:27:26;10.10;99.90
13472;DHT22;6808;49.444;11.034;2022-12-29T17:30:00;10.00;99.90
13472;DHT22;6808;49.444;11.034;2022-12-29T17:32:28;9.90;99.90
13472;DHT22;6808;49.444;11.034;2022-12-29T17:34:53;9.80;99.90
13472;DHT22;6808;49.444;11.034;2022-12-29T17:37:26;9.80;99.90
13472;DHT22;6808;49.444;11.034;2022-12-29T17:39:52;9.80;99.90
13472;DHT22;6808;49.444;11.034;2022-12-29T17:42:18;9.70;99.90
13472;DHT22;6808;49.444;11.034;2022-12-29T17:44:44;9.70;99.90
13472;DHT22;6808;49.444;11.034;2022-12-29T17:47:10;9.60;99.90
13472;DHT22;6808;49.444;11.034;2022-12-29T17:49:36;9.60;99.90